Terminal Aerodrome Forecast
Issued by NWS Mt. Holly, NJ

Home | Current Version | Previous Version | Text Only | Print | Product List | Glossary On
Versions: 1 2 3 4 5 6 7 8 9 10 11 12 13 14 15
122
FTUS41 KPHI 261745
TAFRDG
TAF
KRDG 261745Z 2618/2718 21008KT P6SM SCT250
     FM262300 18006KT P6SM BKN250
     FM270200 VRB03KT P6SM BKN100
      TEMPO 2702/2705 -SHRA OVC060
     FM270700 VRB03KT 4SM BR OVC080
     FM271300 24006KT P6SM SCT045=

USA.gov is the U.S. government's official web portal to all federal, state and local government web resources and services.